createdAt,value
2023-04-07T00:01:41.236Z,27.70
2023-04-07T00:04:09.470Z,27.30
2023-04-07T00:06:37.544Z,27.10
2023-04-07T00:09:05.574Z,27.70
2023-04-07T00:11:33.637Z,27.70
2023-04-07T00:14:01.694Z,27.60
2023-04-07T00:16:29.728Z,27.10
2023-04-07T00:18:59.090Z,27.60
2023-04-07T00:21:27.310Z,27.70
2023-04-07T00:23:55.743Z,27.60
2023-04-07T00:26:25.446Z,27.30
2023-04-07T00:28:53.485Z,27.80
2023-04-07T00:31:21.455Z,27.40
2023-04-07T00:33:49.544Z,27.50
2023-04-07T00:36:18.888Z,27.60
2023-04-07T00:38:46.841Z,27.30
2023-04-07T00:41:14.903Z,27.60
2023-04-07T00:43:42.941Z,27.70
2023-04-07T00:46:10.941Z,27.20
2023-04-07T00:48:39.123Z,27.70
2023-04-07T00:51:08.644Z,27.70
2023-04-07T00:53:38.177Z,27.70
2023-04-07T00:56:07.490Z,27.10
2023-04-07T00:58:35.483Z,27.60
2023-04-07T01:01:10.776Z,27.00
2023-04-07T01:03:47.179Z,27.60
2023-04-07T01:06:19.165Z,27.50
2023-04-07T01:08:55.298Z,27.60
2023-04-07T01:11:26.979Z,27.60
2023-04-07T01:13:56.238Z,27.60
2023-04-07T01:16:33.231Z,27.70
2023-04-07T01:19:14.817Z,27.70
2023-04-07T01:21:45.760Z,27.70
2023-04-07T01:24:38.729Z,27.80
2023-04-07T01:27:20.542Z,27.60
2023-04-07T01:29:51.618Z,27.60
2023-04-07T01:32:21.320Z,27.60
2023-04-07T01:34:50.648Z,27.70
2023-04-07T01:37:19.242Z,27.50
2023-04-07T01:39:47.266Z,27.60
2023-04-07T01:42:17.173Z,27.10
2023-04-07T01:44:46.649Z,28.20
2023-04-07T01:47:17.047Z,27.50
2023-04-07T01:49:46.347Z,27.50
2023-04-07T01:52:15.019Z,27.50
2023-04-07T01:54:43.313Z,27.60
2023-04-07T01:57:11.326Z,27.60
2023-04-07T01:59:39.339Z,27.40
2023-04-07T02:02:07.485Z,27.60
2023-04-07T02:04:44.082Z,27.50
2023-04-07T02:07:18.621Z,27.70
2023-04-07T02:09:49.427Z,27.70
2023-04-07T02:12:18.524Z,27.70
2023-04-07T02:14:47.237Z,27.50
2023-04-07T02:17:17.346Z,27.60
2023-04-07T02:19:47.859Z,27.30
2023-04-07T02:22:17.385Z,27.80
2023-04-07T02:24:45.543Z,27.80
2023-04-07T02:27:14.068Z,27.30
2023-04-07T02:29:42.158Z,27.60
2023-04-07T02:32:10.483Z,27.70
2023-04-07T02:34:38.551Z,27.60
2023-04-07T02:37:07.929Z,27.60
2023-04-07T02:39:36.228Z,27.60
2023-04-07T02:42:04.297Z,27.30
2023-04-07T02:44:32.277Z,27.60
2023-04-07T02:47:00.321Z,27.60
2023-04-07T02:49:28.335Z,27.60
2023-04-07T02:51:56.308Z,27.60
2023-04-07T02:54:25.948Z,27.40
2023-04-07T02:56:53.882Z,27.60
2023-04-07T02:59:22.529Z,27.10
2023-04-07T03:01:50.960Z,27.20
2023-04-07T03:04:19.159Z,27.60
2023-04-07T03:06:47.248Z,27.40
2023-04-07T03:09:15.626Z,27.80
2023-04-07T03:11:44.944Z,27.60
2023-04-07T03:14:12.931Z,27.60
2023-04-07T03:16:41.020Z,27.70
2023-04-07T03:19:09.120Z,27.80
2023-04-07T03:21:38.428Z,27.50
2023-04-07T03:24:07.981Z,27.70
2023-04-07T03:26:36.033Z,27.60
2023-04-07T03:29:05.915Z,27.10
2023-04-07T03:31:33.943Z,27.50
2023-04-07T03:34:01.942Z,27.60
2023-04-07T03:36:29.880Z,27.80
2023-04-07T03:38:57.926Z,27.30
2023-04-07T03:41:26.131Z,27.50
2023-04-07T03:43:54.355Z,27.60
2023-04-07T03:46:26.747Z,27.80
2023-04-07T03:48:54.869Z,27.70
2023-04-07T03:51:22.873Z,27.80
2023-04-07T03:53:51.053Z,27.30
2023-04-07T03:56:19.263Z,27.10
2023-04-07T03:58:48.815Z,27.30
2023-04-07T04:01:16.959Z,27.70
2023-04-07T04:03:46.745Z,27.50
2023-04-07T04:06:14.901Z,27.70
2023-04-07T04:08:42.973Z,27.50
2023-04-07T04:11:10.968Z,27.10
2023-04-07T04:13:38.941Z,27.80
2023-04-07T04:16:08.556Z,27.30
2023-04-07T04:18:36.902Z,27.60
2023-04-07T04:21:06.509Z,27.30
2023-04-07T04:23:34.469Z,27.10
2023-04-07T04:26:03.796Z,27.70
2023-04-07T04:28:31.969Z,27.70
2023-04-07T04:30:59.981Z,27.50
2023-04-07T04:33:28.111Z,27.60
2023-04-07T04:35:56.340Z,27.60
2023-04-07T04:38:25.769Z,27.60
2023-04-07T04:40:53.817Z,27.40
2023-04-07T04:43:21.892Z,27.30
2023-04-07T04:45:49.828Z,27.20
2023-04-07T04:48:18.352Z,27.70
2023-04-07T04:50:46.382Z,27.60
2023-04-07T04:53:14.360Z,27.80
2023-04-07T04:55:47.031Z,27.60
2023-04-07T04:58:15.335Z,27.60
2023-04-07T05:00:43.423Z,27.40
2023-04-07T05:03:11.822Z,27.50
2023-04-07T05:05:40.069Z,27.40
2023-04-07T05:08:09.587Z,27.80
2023-04-07T05:10:40.930Z,27.70
2023-04-07T05:13:10.407Z,27.70
2023-04-07T05:15:38.423Z,27.10
2023-04-07T05:18:06.615Z,27.00
2023-04-07T05:20:34.668Z,27.80
2023-04-07T05:23:02.969Z,27.40
2023-04-07T05:25:30.977Z,27.10
2023-04-07T05:27:59.905Z,27.60
2023-04-07T05:30:29.246Z,27.80
2023-04-07T05:32:57.275Z,27.50
2023-04-07T05:35:25.401Z,27.40
2023-04-07T05:37:53.361Z,27.60
2023-04-07T05:40:21.635Z,27.70
2023-04-07T05:42:49.606Z,27.70
2023-04-07T05:45:17.840Z,27.40
2023-04-07T05:47:49.865Z,27.20
2023-04-07T05:50:19.566Z,27.60
2023-04-07T05:52:47.562Z,27.70
2023-04-07T05:55:15.841Z,27.50
2023-04-07T05:57:43.834Z,27.70
2023-04-07T06:00:13.730Z,27.70
2023-04-07T06:02:42.196Z,27.40
2023-04-07T06:05:11.825Z,27.60
2023-04-07T06:07:39.828Z,27.70
2023-04-07T06:10:09.740Z,27.60
2023-04-07T06:12:37.765Z,27.60
2023-04-07T06:15:06.768Z,27.70
2023-04-07T06:17:34.744Z,27.50
2023-04-07T06:20:02.779Z,27.70
2023-04-07T06:22:32.078Z,27.40
2023-04-07T06:25:00.054Z,27.60
2023-04-07T06:27:28.282Z,27.60
2023-04-07T06:29:57.294Z,27.60
2023-04-07T06:32:25.399Z,27.50
2023-04-07T06:34:53.438Z,27.70
2023-04-07T06:37:21.640Z,27.40
2023-04-07T06:39:51.262Z,27.70
2023-04-07T06:42:19.227Z,27.60
2023-04-07T06:44:47.154Z,27.70
2023-04-07T06:47:15.602Z,27.60
2023-04-07T06:49:43.561Z,27.30
2023-04-07T06:52:11.528Z,27.80
2023-04-07T06:54:39.607Z,27.60
2023-04-07T06:57:12.107Z,27.70
2023-04-07T06:59:40.310Z,27.60
2023-04-07T07:02:09.032Z,27.80
2023-04-07T07:04:37.321Z,27.70
2023-04-07T07:07:05.364Z,27.60
2023-04-07T07:09:33.378Z,27.30
2023-04-07T07:12:04.208Z,27.60
2023-04-07T07:14:33.730Z,27.00
2023-04-07T07:17:01.793Z,27.50
2023-04-07T07:19:29.738Z,27.50
2023-04-07T07:21:57.706Z,27.40
2023-04-07T07:24:25.694Z,27.30
2023-04-07T07:26:53.696Z,27.50
2023-04-07T07:29:21.789Z,27.30
2023-04-07T07:31:51.138Z,27.30
2023-04-07T07:34:19.119Z,27.50
2023-04-07T07:36:47.130Z,27.20
2023-04-07T07:39:15.210Z,27.40
2023-04-07T07:41:43.247Z,26.80
2023-04-07T07:44:11.310Z,27.20
2023-04-07T07:46:39.445Z,26.80
2023-04-07T07:49:08.786Z,27.40
2023-04-07T07:51:37.047Z,27.40
2023-04-07T07:54:05.197Z,27.10
2023-04-07T07:56:33.171Z,27.10
2023-04-07T07:59:01.142Z,27.10
2023-04-07T08:01:29.142Z,27.30
2023-04-07T08:03:57.332Z,27.20
2023-04-07T08:06:27.080Z,27.40
2023-04-07T08:08:55.228Z,27.10
2023-04-07T08:11:23.293Z,26.90
2023-04-07T08:13:51.342Z,27.00
2023-04-07T08:16:19.425Z,27.30
2023-04-07T08:18:47.868Z,27.20
2023-04-07T08:21:16.264Z,27.20
2023-04-07T08:23:46.533Z,27.20
2023-04-07T08:26:14.630Z,26.90
2023-04-07T08:28:42.621Z,27.10
2023-04-07T08:31:10.694Z,27.20
2023-04-07T08:33:38.699Z,26.30
2023-04-07T08:36:07.637Z,27.20
2023-04-07T08:38:35.786Z,27.00
2023-04-07T08:41:14.178Z,27.10
2023-04-07T08:43:47.058Z,27.30
2023-04-07T08:46:17.094Z,28.00
2023-04-07T08:48:47.872Z,26.90
2023-04-07T08:51:18.184Z,27.30
2023-04-07T08:53:51.175Z,27.00
2023-04-07T08:56:21.882Z,27.00
2023-04-07T08:58:50.414Z,26.90
2023-04-07T09:01:19.968Z,26.90
2023-04-07T09:03:49.999Z,27.00
2023-04-07T09:06:18.933Z,27.00
2023-04-07T09:08:46.924Z,27.10
2023-04-07T09:11:14.964Z,26.80
2023-04-07T09:13:44.368Z,26.90
2023-04-07T09:16:13.937Z,26.80
2023-04-07T09:18:42.690Z,26.90
2023-04-07T09:21:11.418Z,27.00
2023-04-07T09:23:42.536Z,26.90
2023-04-07T09:26:24.342Z,27.00
2023-04-07T09:28:56.227Z,26.70
2023-04-07T09:31:26.221Z,26.30
2023-04-07T09:33:55.371Z,26.80
2023-04-07T09:36:27.018Z,26.80
2023-04-07T09:38:55.058Z,27.00
2023-04-07T09:41:23.098Z,26.60
2023-04-07T09:43:59.405Z,27.10
2023-04-07T09:46:29.222Z,27.10
2023-04-07T09:49:05.125Z,26.80
2023-04-07T09:51:34.397Z,26.90
2023-04-07T09:54:02.462Z,26.90
2023-04-07T09:56:30.814Z,27.10
2023-04-07T09:59:00.880Z,26.80
2023-04-07T10:01:29.090Z,26.90
2023-04-07T10:03:57.468Z,26.80
2023-04-07T10:06:27.524Z,26.80
2023-04-07T10:08:55.490Z,27.70
2023-04-07T10:11:23.579Z,26.70
2023-04-07T10:13:51.826Z,26.70
2023-04-07T10:16:22.088Z,27.00
2023-04-07T10:18:51.667Z,27.00
2023-04-07T10:21:20.006Z,26.90
2023-04-07T10:24:01.826Z,27.10
2023-04-07T10:26:33.234Z,27.00
2023-04-07T10:29:07.070Z,27.00
2023-04-07T10:31:38.075Z,26.90
2023-04-07T10:34:06.073Z,27.00
2023-04-07T10:36:34.832Z,26.60
2023-04-07T10:39:21.880Z,26.90
2023-04-07T10:41:51.692Z,26.70
2023-04-07T10:44:53.001Z,26.60
2023-04-07T10:47:22.397Z,26.60
2023-04-07T10:50:20.091Z,27.00
2023-04-07T10:52:49.687Z,27.00
2023-04-07T10:55:32.830Z,26.90
2023-04-07T10:58:22.612Z,26.80
2023-04-07T11:01:23.162Z,26.80
2023-04-07T11:04:05.085Z,26.90
2023-04-07T11:06:33.241Z,27.20
2023-04-07T11:09:01.397Z,26.80
2023-04-07T11:11:41.803Z,26.50
2023-04-07T11:14:09.992Z,27.20
2023-04-07T11:16:41.542Z,26.80
2023-04-07T11:19:11.346Z,27.00
2023-04-07T11:21:39.950Z,27.00
2023-04-07T11:24:07.993Z,27.20
2023-04-07T11:26:41.742Z,26.60
2023-04-07T11:29:11.677Z,26.70
2023-04-07T11:31:40.054Z,26.90
2023-04-07T11:34:11.158Z,26.70
2023-04-07T11:36:41.792Z,27.00
2023-04-07T11:39:20.596Z,26.70
2023-04-07T11:41:51.032Z,26.90
2023-04-07T11:44:19.199Z,26.60
2023-04-07T11:46:57.647Z,26.70
2023-04-07T11:49:28.934Z,26.70
2023-04-07T11:52:02.880Z,26.40
2023-04-07T11:54:42.460Z,26.40
2023-04-07T11:57:12.457Z,26.40
2023-04-07T11:59:41.721Z,26.30
2023-04-07T12:02:10.142Z,26.20
2023-04-07T12:04:41.056Z,25.80
2023-04-07T12:07:10.804Z,26.10
2023-04-07T12:09:39.188Z,26.30
2023-04-07T12:12:10.501Z,26.20
2023-04-07T12:14:38.614Z,26.00
2023-04-07T12:17:07.999Z,25.90
2023-04-07T12:19:36.399Z,26.00
2023-04-07T12:22:05.985Z,26.30
2023-04-07T12:24:33.977Z,26.10
2023-04-07T12:27:02.414Z,26.40
2023-04-07T12:29:32.495Z,26.50
2023-04-07T12:32:00.677Z,26.30
2023-04-07T12:34:28.771Z,26.60
2023-04-07T12:36:56.900Z,26.60
2023-04-07T12:39:26.308Z,26.60
2023-04-07T12:41:54.259Z,26.60
2023-04-07T12:44:22.332Z,26.30
2023-04-07T12:46:50.279Z,26.50
2023-04-07T12:49:18.332Z,26.50
2023-04-07T12:51:46.337Z,26.50
2023-04-07T12:54:14.971Z,26.50
2023-04-07T12:56:44.428Z,26.30
2023-04-07T12:59:12.875Z,26.70
2023-04-07T13:01:41.064Z,26.60
2023-04-07T13:04:10.141Z,26.40
2023-04-07T13:06:38.256Z,26.80
2023-04-07T13:09:06.345Z,26.70
2023-04-07T13:11:34.318Z,26.60
2023-04-07T13:14:03.808Z,25.70
2023-04-07T13:16:32.067Z,26.50
2023-04-07T13:19:01.994Z,26.40
2023-04-07T13:24:00.924Z,26.40
2023-04-07T13:26:29.211Z,26.30
2023-04-07T13:28:57.254Z,26.30
2023-04-07T13:31:27.691Z,26.30
2023-04-07T13:33:55.673Z,26.40
2023-04-07T13:36:23.756Z,26.40
2023-04-07T13:38:51.814Z,26.00
2023-04-07T13:41:19.783Z,25.90
2023-04-07T13:43:48.122Z,26.10
2023-04-07T13:46:27.954Z,26.10
2023-04-07T13:48:58.626Z,25.90
2023-04-07T13:51:27.908Z,25.50
2023-04-07T13:53:56.033Z,25.80
2023-04-07T13:56:24.582Z,25.80
2023-04-07T13:58:52.733Z,26.00
2023-04-07T14:01:20.964Z,25.60
2023-04-07T14:03:50.425Z,25.50
2023-04-07T14:06:22.582Z,25.10
2023-04-07T14:08:51.057Z,25.20
2023-04-07T14:11:19.149Z,25.40
2023-04-07T14:13:47.570Z,25.10
2023-04-07T14:16:16.153Z,25.20
2023-04-07T14:18:44.464Z,25.10
2023-04-07T14:21:12.663Z,25.10
2023-04-07T14:23:42.227Z,25.00
2023-04-07T14:26:12.069Z,25.40
2023-04-07T14:28:40.673Z,25.30
2023-04-07T14:31:15.096Z,25.60
2023-04-07T14:33:43.328Z,25.40
2023-04-07T14:36:11.580Z,25.40
2023-04-07T14:38:40.970Z,25.60
2023-04-07T14:41:10.656Z,25.70
2023-04-07T14:43:39.458Z,24.90
2023-04-07T14:46:08.545Z,25.20
2023-04-07T14:48:36.602Z,25.90
2023-04-07T14:51:09.896Z,25.50
2023-04-07T14:53:38.240Z,25.50
2023-04-07T14:56:08.388Z,25.60
2023-04-07T14:58:38.834Z,25.70
2023-04-07T15:01:07.218Z,26.00
2023-04-07T15:03:36.679Z,26.20
2023-04-07T15:06:08.792Z,26.10
2023-04-07T15:08:37.015Z,26.20
2023-04-07T15:11:07.320Z,26.30
2023-04-07T15:13:36.089Z,26.50
2023-04-07T15:16:08.863Z,26.30
2023-04-07T15:18:37.138Z,26.40
2023-04-07T15:21:05.986Z,26.10
2023-04-07T15:23:34.397Z,25.90
2023-04-07T15:26:02.372Z,25.90
2023-04-07T15:28:31.667Z,25.70
2023-04-07T15:31:00.488Z,25.90
2023-04-07T15:33:28.653Z,25.70
2023-04-07T15:35:57.456Z,25.90
2023-04-07T15:38:25.465Z,26.00
2023-04-07T15:40:53.442Z,25.90
2023-04-07T15:43:21.510Z,25.80
2023-04-07T15:45:51.212Z,26.10
2023-04-07T15:48:19.287Z,25.90
2023-04-07T15:50:47.553Z,26.20
2023-04-07T15:53:15.726Z,26.00
2023-04-07T15:55:44.506Z,25.90
2023-04-07T15:58:12.440Z,25.70
2023-04-07T16:00:41.172Z,26.10
2023-04-07T16:03:10.755Z,25.90
2023-04-07T16:05:39.380Z,25.90
2023-04-07T16:08:07.398Z,26.10
2023-04-07T16:10:35.516Z,25.70
2023-04-07T16:13:04.141Z,25.80
2023-04-07T16:15:40.126Z,25.80
2023-04-07T16:18:12.676Z,25.40
2023-04-07T16:20:41.022Z,25.70
2023-04-07T16:23:09.965Z,25.60
2023-04-07T16:25:38.022Z,25.30
2023-04-07T16:28:06.059Z,25.70
2023-04-07T16:30:34.094Z,25.50
2023-04-07T16:33:02.201Z,25.50
2023-04-07T16:35:32.028Z,25.70
2023-04-07T16:38:03.940Z,25.50
2023-04-07T16:40:32.092Z,26.00
2023-04-07T16:43:00.316Z,25.80
2023-04-07T16:45:28.337Z,25.90
2023-04-07T16:47:56.420Z,25.60
2023-04-07T16:50:24.496Z,25.70
2023-04-07T16:52:54.813Z,25.70
2023-04-07T16:55:23.161Z,26.10
2023-04-07T16:57:51.297Z,25.40
2023-04-07T17:00:20.931Z,26.10
2023-04-07T17:02:49.061Z,25.60
2023-04-07T17:05:18.135Z,26.00
2023-04-07T17:07:46.232Z,25.90
2023-04-07T17:10:15.800Z,26.50
2023-04-07T17:12:43.883Z,25.90
2023-04-07T17:15:12.394Z,26.00
2023-04-07T17:17:40.397Z,26.40
2023-04-07T17:20:10.673Z,26.40
2023-04-07T17:22:38.815Z,26.60
2023-04-07T17:25:08.013Z,26.70
2023-04-07T17:27:37.385Z,26.60
2023-04-07T17:30:07.425Z,26.70
2023-04-07T17:32:35.429Z,26.70
2023-04-07T17:35:03.557Z,26.80
2023-04-07T17:37:31.773Z,26.50
2023-04-07T17:40:00.169Z,26.80
2023-04-07T17:42:28.419Z,27.00
2023-04-07T17:44:57.783Z,26.80
2023-04-07T17:47:25.796Z,26.90
2023-04-07T17:49:53.770Z,26.90
2023-04-07T17:52:22.124Z,26.60
2023-04-07T17:54:50.090Z,26.90
2023-04-07T17:57:19.749Z,26.70
2023-04-07T17:59:48.761Z,26.50
2023-04-07T18:02:18.426Z,26.40
2023-04-07T18:04:46.631Z,27.20
2023-04-07T18:07:14.954Z,26.80
2023-04-07T18:09:44.631Z,26.50
2023-04-07T18:12:12.651Z,27.30
2023-04-07T18:14:41.444Z,26.90
2023-04-07T18:17:09.472Z,26.70
2023-04-07T18:19:38.789Z,27.00
2023-04-07T18:22:06.942Z,26.70
2023-04-07T18:24:34.977Z,27.30
2023-04-07T18:27:03.897Z,27.20
2023-04-07T18:29:31.832Z,27.60
2023-04-07T18:31:59.797Z,27.40
2023-04-07T18:34:27.920Z,27.20
2023-04-07T18:36:57.278Z,27.40
2023-04-07T18:39:27.835Z,27.50
2023-04-07T18:41:57.675Z,27.10
2023-04-07T18:44:25.963Z,27.30
2023-04-07T18:46:54.366Z,27.30
2023-04-07T18:49:22.363Z,26.70
2023-04-07T18:51:50.328Z,27.60
2023-04-07T18:54:19.667Z,27.30
2023-04-07T18:56:48.270Z,27.30
2023-04-07T18:59:16.614Z,27.00
2023-04-07T19:01:44.702Z,27.70
2023-04-07T19:04:12.810Z,27.70
2023-04-07T19:06:41.110Z,27.00
2023-04-07T19:09:09.100Z,27.10
2023-04-07T19:11:38.505Z,27.00
2023-04-07T19:14:06.481Z,27.50
2023-04-07T19:16:37.075Z,26.90
2023-04-07T19:19:06.120Z,27.60
2023-04-07T19:21:34.179Z,27.40
2023-04-07T19:24:02.193Z,27.30
2023-04-07T19:26:30.387Z,27.60
2023-04-07T19:28:59.978Z,27.50
2023-04-07T19:31:27.999Z,27.60
2023-04-07T19:33:56.215Z,27.80
2023-04-07T19:36:24.253Z,27.30
2023-04-07T19:38:52.257Z,27.30
2023-04-07T19:41:20.281Z,26.90
2023-04-07T19:43:48.722Z,27.60
2023-04-07T19:46:18.405Z,27.50
2023-04-07T19:48:46.874Z,27.40
2023-04-07T19:51:14.950Z,27.60
2023-04-07T19:53:42.972Z,27.40
2023-04-07T19:56:11.233Z,27.60
2023-04-07T19:58:39.265Z,27.70
2023-04-07T20:01:07.558Z,27.70
2023-04-07T20:03:39.479Z,27.60
2023-04-07T20:06:07.498Z,27.60
2023-04-07T20:08:35.534Z,27.60
2023-04-07T20:11:03.538Z,27.60
2023-04-07T20:13:32.983Z,27.60
2023-04-07T20:16:00.967Z,27.60
2023-04-07T20:18:28.939Z,27.60
2023-04-07T20:21:01.273Z,27.70
2023-04-07T20:23:29.819Z,27.50
2023-04-07T20:25:57.899Z,27.60
2023-04-07T20:28:26.134Z,27.70
2023-04-07T20:30:54.292Z,27.70
2023-04-07T20:33:22.295Z,27.70
2023-04-07T20:35:50.407Z,27.70
2023-04-07T20:38:20.160Z,27.40
2023-04-07T20:40:48.286Z,27.70
2023-04-07T20:43:17.986Z,27.60
2023-04-07T20:45:46.643Z,27.60
2023-04-07T20:48:15.555Z,27.20
2023-04-07T20:50:43.617Z,27.60
2023-04-07T20:53:11.596Z,27.60
2023-04-07T20:55:41.188Z,27.70
2023-04-07T20:58:09.273Z,27.50
2023-04-07T21:00:37.449Z,27.60
2023-04-07T21:03:05.711Z,27.90
2023-04-07T21:05:33.868Z,27.70
2023-04-07T21:08:01.921Z,27.60
2023-04-07T21:10:30.010Z,27.50
2023-04-07T21:12:59.381Z,27.60
2023-04-07T21:15:27.453Z,27.70
2023-04-07T21:17:55.733Z,27.70
2023-04-07T21:20:23.750Z,27.60
2023-04-07T21:22:51.762Z,27.70
2023-04-07T21:25:20.243Z,27.50
2023-04-07T21:27:48.300Z,27.60
2023-04-07T21:30:18.006Z,27.60
2023-04-07T21:32:49.719Z,27.90
2023-04-07T21:35:18.700Z,27.80
2023-04-07T21:37:47.554Z,27.40
2023-04-07T21:40:15.552Z,27.80
2023-04-07T21:42:43.496Z,28.00
2023-04-07T21:45:12.851Z,27.90
2023-04-07T21:47:42.275Z,27.90
2023-04-07T21:50:11.776Z,28.00
2023-04-07T21:52:39.730Z,28.00
2023-04-07T21:55:09.909Z,28.10
2023-04-07T21:57:38.089Z,28.00
2023-04-07T22:00:08.351Z,28.00
2023-04-07T22:02:36.471Z,28.00
2023-04-07T22:05:06.878Z,28.10
2023-04-07T22:07:34.899Z,27.80
2023-04-07T22:10:03.198Z,27.90
2023-04-07T22:12:31.207Z,28.10
2023-04-07T22:14:59.185Z,28.00
2023-04-07T22:17:27.260Z,28.00
2023-04-07T22:19:55.733Z,27.40
2023-04-07T22:22:25.237Z,28.00
2023-04-07T22:24:53.293Z,28.00
2023-04-07T22:27:21.325Z,28.00
2023-04-07T22:29:49.389Z,27.40
2023-04-07T22:32:17.323Z,27.70
2023-04-07T22:34:46.403Z,27.90
2023-04-07T22:37:14.744Z,28.00
2023-04-07T22:39:45.444Z,28.10
2023-04-07T22:42:13.536Z,28.00
2023-04-07T22:44:41.503Z,28.00
2023-04-07T22:47:10.266Z,28.00
2023-04-07T22:49:38.294Z,28.00
2023-04-07T22:52:06.332Z,28.00
2023-04-07T22:54:34.400Z,27.90
2023-04-07T22:57:03.930Z,28.40
2023-04-07T22:59:32.102Z,28.00
2023-04-07T23:02:00.209Z,28.10
2023-04-07T23:04:28.526Z,28.00
2023-04-07T23:06:56.696Z,28.10
2023-04-07T23:09:24.638Z,27.60
2023-04-07T23:11:52.578Z,27.70
2023-04-07T23:14:21.920Z,28.30
2023-04-07T23:16:49.907Z,27.60
2023-04-07T23:19:18.027Z,27.80
2023-04-07T23:21:45.992Z,27.60
2023-04-07T23:24:14.019Z,27.70
2023-04-07T23:26:41.968Z,27.80
2023-04-07T23:29:09.983Z,27.80
2023-04-07T23:31:39.357Z,27.70
2023-04-07T23:34:07.307Z,28.10
2023-04-07T23:36:35.330Z,27.80
2023-04-07T23:39:03.735Z,28.00
2023-04-07T23:41:31.732Z,27.90
2023-04-07T23:43:59.724Z,27.90
2023-04-07T23:46:27.979Z,27.80
2023-04-07T23:48:57.476Z,28.20
2023-04-07T23:51:26.396Z,27.70
2023-04-07T23:53:54.440Z,28.10
2023-04-07T23:56:22.496Z,28.10
2023-04-07T23:58:50.850Z,28.10
